Time;durP1;ratioP1;P1;durP2;ratioP2;P2;SDS_P1;SDS_P2;PMS_P1;PMS_P2;Temp;Humidity;BMP_temperature;BMP_pressure;BME280_temperature;BME280_humidity;BME280_pressure;Samples;Min_cycle;Max_cycle;Signal;HPM_P1;HPM_P2
2023/05/25 00:01:35;;;;;;;19.58;5.35;;;8.00;99.90;;;;;;4986541;28;20073;-65
2023/05/25 00:04:04;;;;;;;22.60;5.60;;;7.90;99.90;;;;;;4990203;28;20453;-64
2023/05/25 00:06:30;;;;;;;16.83;6.22;;;7.90;99.90;;;;;;4991883;28;20482;-64
2023/05/25 00:08:56;;;;;;;24.60;6.00;;;7.80;99.90;;;;;;4992420;28;20022;-64
2023/05/25 00:11:26;;;;;;;19.48;5.50;;;7.80;99.90;;;;;;4994814;28;20554;-65
2023/05/25 00:13:51;;;;;;;14.60;5.57;;;7.70;99.90;;;;;;4971981;28;20030;-64
2023/05/25 00:16:17;;;;;;;23.70;6.55;;;7.70;99.90;;;;;;4993549;28;20038;-64
2023/05/25 00:18:43;;;;;;;17.45;7.03;;;7.60;99.90;;;;;;4992079;28;20058;-65
2023/05/25 00:21:09;;;;;;;14.45;5.15;;;7.50;99.90;;;;;;4988147;28;20035;-65
2023/05/25 00:23:35;;;;;;;20.92;7.65;;;7.50;99.90;;;;;;4994487;28;20052;-64
2023/05/25 00:26:02;;;;;;;20.13;6.30;;;7.50;99.90;;;;;;4989651;28;20436;-64
2023/05/25 00:28:28;;;;;;;19.58;6.32;;;7.40;99.90;;;;;;4996594;28;20084;-60
2023/05/25 00:30:53;;;;;;;18.30;6.25;;;7.30;99.90;;;;;;4993889;28;20030;-65
2023/05/25 00:33:19;;;;;;;19.45;7.10;;;7.30;99.90;;;;;;4994311;28;20037;-64
2023/05/25 00:35:45;;;;;;;16.40;5.50;;;7.20;99.90;;;;;;4987700;28;20113;-65
2023/05/25 00:38:17;;;;;;;21.17;6.70;;;7.20;99.90;;;;;;4994833;28;20216;-65
2023/05/25 00:40:43;;;;;;;19.27;5.78;;;7.10;99.90;;;;;;4986854;28;20051;-64
2023/05/25 00:43:10;;;;;;;15.00;6.07;;;7.10;99.90;;;;;;4995963;28;20026;-64
2023/05/25 00:45:35;;;;;;;26.90;6.43;;;7.00;99.90;;;;;;4980203;28;20504;-65
2023/05/25 00:48:03;;;;;;;20.20;7.97;;;7.00;99.90;;;;;;4979300;28;20072;-65
2023/05/25 00:50:41;;;;;;;22.75;6.63;;;7.10;99.90;;;;;;4991052;28;20030;-64
2023/05/25 00:53:08;;;;;;;21.83;6.15;;;7.20;99.90;;;;;;4994784;28;20070;-64
2023/05/25 00:56:02;;;;;;;12.60;6.55;;;7.20;99.90;;;;;;4992226;28;20030;-65
2023/05/25 00:58:32;;;;;;;12.10;5.65;;;7.20;99.90;;;;;;4966323;28;20045;-61
2023/05/25 01:01:00;;;;;;;13.00;6.57;;;7.20;99.90;;;;;;4993544;28;20572;-64
2023/05/25 01:03:29;;;;;;;21.73;5.85;;;7.10;99.90;;;;;;4992476;28;20021;-64
2023/05/25 01:05:56;;;;;;;21.33;7.05;;;7.00;99.90;;;;;;4993579;28;20022;-64
2023/05/25 01:08:23;;;;;;;19.92;6.45;;;7.10;99.90;;;;;;4993011;28;20400;-65
2023/05/25 01:10:51;;;;;;;30.52;7.47;;;7.20;99.90;;;;;;4989458;28;20022;-65
2023/05/25 01:13:18;;;;;;;23.58;7.10;;;7.30;99.90;;;;;;4995077;28;20042;-64
2023/05/25 01:15:45;;;;;;;10.63;6.03;;;7.40;99.90;;;;;;4991264;28;20026;-64
2023/05/25 01:18:14;;;;;;;21.35;6.53;;;7.50;99.90;;;;;;4993633;28;20058;-65
2023/05/25 01:21:11;;;;;;;27.23;6.57;;;7.60;99.90;;;;;;4985413;28;20117;-65
2023/05/25 01:23:42;;;;;;;21.58;5.93;;;7.70;99.90;;;;;;4982568;28;20134;-65
2023/05/25 01:26:12;;;;;;;22.65;6.47;;;7.60;99.90;;;;;;4992234;28;20524;-65
2023/05/25 01:28:41;;;;;;;16.92;5.78;;;7.60;99.90;;;;;;4993201;28;20022;-65
2023/05/25 01:31:08;;;;;;;14.77;6.20;;;7.50;99.90;;;;;;4987916;28;20117;-65
2023/05/25 01:33:35;;;;;;;31.70;7.78;;;7.50;99.90;;;;;;4986956;28;20066;-64
2023/05/25 01:36:02;;;;;;;19.58;6.65;;;7.40;99.90;;;;;;4987372;28;20045;-64
2023/05/25 01:38:27;;;;;;;25.10;7.82;;;7.30;99.90;;;;;;4989634;28;20026;-61
2023/05/25 01:40:53;;;;;;;15.65;6.20;;;7.30;99.90;;;;;;4974122;28;20029;-65
2023/05/25 01:43:19;;;;;;;18.73;5.60;;;7.20;99.90;;;;;;4992573;28;20022;-65
2023/05/25 01:45:45;;;;;;;15.13;5.50;;;7.10;99.90;;;;;;4976025;28;20092;-65
2023/05/25 01:48:39;;;;;;;16.23;6.13;;;7.00;99.90;;;;;;4990201;28;20435;-64
2023/05/25 01:51:15;;;;;;;22.98;6.60;;;7.00;99.90;;;;;;4991223;28;20027;-64
2023/05/25 01:53:52;;;;;;;17.30;6.30;;;6.90;99.90;;;;;;4986909;28;20046;-64
2023/05/25 01:56:20;;;;;;;16.00;7.10;;;6.80;99.90;;;;;;4985233;28;20037;-64
2023/05/25 01:58:47;;;;;;;16.95;6.57;;;6.80;99.90;;;;;;4992533;28;20034;-64
2023/05/25 02:01:15;;;;;;;20.90;6.60;;;6.70;99.90;;;;;;4988144;28;20466;-65
2023/05/25 02:03:41;;;;;;;18.45;6.07;;;6.70;99.90;;;;;;4986813;28;20672;-65
2023/05/25 02:06:07;;;;;;;22.02;7.15;;;6.70;99.90;;;;;;4986644;28;20030;-65
2023/05/25 02:08:33;;;;;;;18.67;7.05;;;6.70;99.90;;;;;;4990462;28;20041;-64
2023/05/25 02:10:59;;;;;;;28.70;8.90;;;6.70;99.90;;;;;;4991443;28;20034;-65
2023/05/25 02:13:25;;;;;;;21.77;6.82;;;6.70;99.90;;;;;;4985873;28;20049;-64
2023/05/25 02:15:51;;;;;;;14.63;7.18;;;6.70;99.90;;;;;;4989148;28;20547;-64
2023/05/25 02:18:17;;;;;;;16.92;7.82;;;6.70;99.90;;;;;;4987304;28;20039;-64
2023/05/25 02:20:43;;;;;;;23.65;8.20;;;6.80;99.90;;;;;;4968530;28;20026;-64
2023/05/25 02:23:09;;;;;;;22.33;7.53;;;6.90;99.90;;;;;;4991394;28;20038;-65
2023/05/25 02:25:35;;;;;;;19.40;7.82;;;6.90;99.90;;;;;;4990406;28;20027;-64
2023/05/25 02:28:01;;;;;;;35.53;8.63;;;7.00;99.90;;;;;;4991965;28;20026;-64
2023/05/25 02:30:26;;;;;;;23.33;7.05;;;7.00;99.90;;;;;;4990895;28;20504;-64
2023/05/25 02:32:52;;;;;;;33.75;8.80;;;7.00;99.90;;;;;;4989921;28;20026;-65
2023/05/25 02:35:18;;;;;;;26.83;8.82;;;7.10;99.90;;;;;;4989174;28;20026;-64
2023/05/25 02:37:44;;;;;;;24.60;8.02;;;7.10;99.90;;;;;;4992321;28;20025;-65
2023/05/25 02:40:10;;;;;;;26.23;7.93;;;7.10;99.90;;;;;;4990026;28;20519;-64
2023/05/25 02:42:36;;;;;;;18.63;7.30;;;7.10;99.90;;;;;;4990722;28;20357;-64
2023/05/25 02:45:02;;;;;;;18.17;7.05;;;7.20;99.90;;;;;;4970042;28;20107;-65
2023/05/25 02:47:28;;;;;;;17.67;7.22;;;7.10;99.90;;;;;;4992423;28;20022;-64
2023/05/25 02:49:54;;;;;;;25.92;8.65;;;7.20;99.90;;;;;;4990802;28;20045;-64
2023/05/25 02:52:20;;;;;;;31.88;9.13;;;7.20;99.90;;;;;;4990561;28;20065;-64
2023/05/25 02:54:45;;;;;;;22.05;7.57;;;7.30;99.90;;;;;;4989442;28;20235;-65
2023/05/25 02:57:11;;;;;;;22.58;7.97;;;7.30;99.90;;;;;;4988923;28;20085;-64
2023/05/25 02:59:36;;;;;;;28.15;7.07;;;7.20;99.90;;;;;;4987122;28;20023;-64
2023/05/25 03:02:02;;;;;;;17.15;6.05;;;7.10;99.90;;;;;;4990863;28;20031;-64
2023/05/25 03:04:29;;;;;;;17.73;6.93;;;7.00;99.90;;;;;;4987925;28;20026;-63
2023/05/25 03:06:55;;;;;;;17.40;5.72;;;6.90;99.90;;;;;;4986854;28;20429;-62
2023/05/25 03:09:21;;;;;;;21.35;6.60;;;6.70;99.90;;;;;;4987674;28;20109;-64
2023/05/25 03:11:46;;;;;;;14.90;6.20;;;6.60;99.90;;;;;;4989884;28;20041;-64
2023/05/25 03:14:12;;;;;;;19.25;7.07;;;6.50;99.90;;;;;;4986226;28;20034;-65
2023/05/25 03:16:37;;;;;;;26.38;7.57;;;6.40;99.90;;;;;;4973017;28;20109;-64
2023/05/25 03:19:04;;;;;;;22.80;7.10;;;6.40;99.90;;;;;;4983567;28;20030;-64
2023/05/25 03:21:31;;;;;;;18.73;7.32;;;6.40;99.90;;;;;;4981477;28;20022;-65
2023/05/25 03:23:56;;;;;;;19.08;7.32;;;6.40;99.90;;;;;;4986651;28;20050;-65
2023/05/25 03:26:24;;;;;;;21.40;7.32;;;6.30;99.90;;;;;;4988900;28;20105;-64
2023/05/25 03:28:51;;;;;;;18.08;7.57;;;6.30;99.90;;;;;;4989013;28;20027;-64
2023/05/25 03:31:17;;;;;;;21.65;8.68;;;6.30;99.90;;;;;;4985079;28;20061;-65
2023/05/25 03:33:42;;;;;;;26.50;8.10;;;6.20;99.90;;;;;;4968839;28;20377;-64
2023/05/25 03:36:09;;;;;;;21.33;8.27;;;6.20;99.90;;;;;;4985810;28;20041;-64
2023/05/25 03:38:38;;;;;;;20.73;7.45;;;6.20;99.90;;;;;;4987721;28;20585;-64
2023/05/25 03:41:04;;;;;;;18.00;7.38;;;6.30;99.90;;;;;;4986651;28;20157;-65
2023/05/25 03:43:30;;;;;;;21.55;7.22;;;6.30;99.90;;;;;;4989826;28;20156;-65
2023/05/25 03:45:56;;;;;;;23.95;7.97;;;6.30;99.90;;;;;;4969106;28;20045;-65
2023/05/25 03:48:21;;;;;;;23.55;8.38;;;6.40;99.90;;;;;;4988068;28;20030;-64
2023/05/25 03:50:47;;;;;;;16.63;7.22;;;6.40;99.90;;;;;;4986349;28;20030;-64
2023/05/25 03:53:13;;;;;;;22.50;9.32;;;6.40;99.90;;;;;;4989465;28;20026;-65
2023/05/25 03:55:38;;;;;;;24.35;8.63;;;6.50;99.90;;;;;;4987474;28;20026;-64
2023/05/25 03:58:04;;;;;;;21.17;8.15;;;6.50;99.90;;;;;;4990187;28;20109;-65
2023/05/25 04:00:29;;;;;;;21.98;8.57;;;6.60;99.90;;;;;;4982201;28;20022;-63
2023/05/25 04:02:55;;;;;;;29.70;9.00;;;6.60;99.90;;;;;;4988400;28;20081;-64
2023/05/25 04:05:21;;;;;;;22.60;9.27;;;6.60;99.90;;;;;;4966131;28;20598;-64
2023/05/25 04:07:47;;;;;;;22.80;9.40;;;6.70;99.90;;;;;;4989824;28;20023;-65
2023/05/25 04:10:12;;;;;;;24.17;9.32;;;6.80;99.90;;;;;;4986817;28;20022;-64
2023/05/25 04:12:38;;;;;;;32.15;9.40;;;6.90;99.90;;;;;;4985611;28;20496;-65
2023/05/25 04:15:07;;;;;;;26.00;10.05;;;7.00;99.90;;;;;;4984518;28;20117;-64
2023/05/25 04:17:34;;;;;;;20.02;8.23;;;7.10;99.90;;;;;;4989556;28;20490;-64
2023/05/25 04:20:00;;;;;;;25.10;9.27;;;7.20;99.90;;;;;;4984511;28;20065;-63
2023/05/25 04:22:26;;;;;;;25.60;9.45;;;7.30;99.90;;;;;;4986846;28;20057;-65
2023/05/25 04:24:51;;;;;;;23.83;8.98;;;7.40;99.90;;;;;;4967114;28;20108;-65
2023/05/25 04:27:19;;;;;;;18.75;8.32;;;7.50;99.90;;;;;;4986056;28;20109;-65
2023/05/25 04:29:45;;;;;;;20.83;7.50;;;7.70;99.90;;;;;;4983074;28;20494;-65
2023/05/25 04:32:13;;;;;;;28.48;8.48;;;8.10;99.90;;;;;;4989227;28;20038;-64
2023/05/25 04:34:41;;;;;;;18.02;6.03;;;9.00;99.90;;;;;;4986016;28;20046;-65
2023/05/25 04:37:07;;;;;;;16.88;6.60;;;10.20;99.90;;;;;;4989100;28;20033;-65
2023/05/25 04:39:33;;;;;;;14.65;5.65;;;11.30;99.90;;;;;;4988342;28;20018;-65
2023/05/25 04:42:03;;;;;;;25.00;6.10;;;12.40;99.90;;;;;;4987510;28;20566;-64
2023/05/25 04:44:32;;;;;;;22.70;6.22;;;13.30;99.90;;;;;;4989274;28;20022;-65
2023/05/25 04:47:01;;;;;;;16.80;5.40;;;14.00;99.90;;;;;;4963436;28;20050;-65
2023/05/25 04:49:27;;;;;;;14.02;5.20;;;14.90;99.90;;;;;;4981215;28;20030;-66
2023/05/25 04:51:53;;;;;;;15.18;6.03;;;15.40;99.90;;;;;;4987952;28;20496;-65
2023/05/25 04:54:18;;;;;;;9.13;4.28;;;15.80;99.90;;;;;;4991733;28;20044;-65
2023/05/25 04:56:44;;;;;;;14.00;4.15;;;16.30;98.60;;;;;;4990875;28;20122;-64
2023/05/25 04:59:10;;;;;;;14.45;4.28;;;16.60;96.60;;;;;;4991802;28;20496;-65
2023/05/25 05:01:39;;;;;;;18.90;5.78;;;16.40;97.10;;;;;;4988706;28;20053;-66
2023/05/25 05:04:08;;;;;;;11.30;4.47;;;16.60;97.00;;;;;;4989880;28;20073;-65
2023/05/25 05:06:34;;;;;;;9.68;3.42;;;16.40;95.80;;;;;;4989642;28;20106;-66
2023/05/25 05:09:00;;;;;;;7.63;3.80;;;16.80;95.70;;;;;;4990547;28;20105;-64
2023/05/25 05:11:27;;;;;;;7.60;4.10;;;17.00;95.20;;;;;;4988374;28;20030;-66
2023/05/25 05:13:53;;;;;;;9.95;3.67;;;17.20;94.50;;;;;;4991034;28;20030;-66
2023/05/25 05:16:19;;;;;;;13.70;4.65;;;18.10;93.20;;;;;;4990034;28;20065;-66
2023/05/25 05:18:45;;;;;;;10.45;4.32;;;18.20;92.10;;;;;;4989429;28;20054;-65
2023/05/25 05:21:10;;;;;;;14.93;4.80;;;18.00;92.00;;;;;;4988069;28;20038;-65
2023/05/25 05:23:36;;;;;;;14.45;5.07;;;18.20;91.30;;;;;;4990948;28;20046;-65
2023/05/25 05:26:03;;;;;;;11.45;4.97;;;18.10;90.20;;;;;;4993196;28;20065;-65
2023/05/25 05:28:29;;;;;;;8.85;4.07;;;18.40;89.10;;;;;;4985905;28;20022;-66
2023/05/25 05:30:55;;;;;;;13.18;4.85;;;18.90;88.70;;;;;;4990901;28;20026;-65
2023/05/25 05:33:22;;;;;;;14.57;5.20;;;19.20;87.70;;;;;;4991088;28;20388;-66
2023/05/25 05:35:51;;;;;;;13.48;4.40;;;19.60;86.70;;;;;;4989864;28;20031;-65
2023/05/25 05:38:17;;;;;;;14.98;4.78;;;19.90;85.90;;;;;;4972434;28;20080;-66
2023/05/25 05:40:43;;;;;;;9.80;4.07;;;19.60;85.90;;;;;;4990648;28;20546;-66
2023/05/25 05:43:13;;;;;;;12.90;5.18;;;20.00;85.30;;;;;;4990771;28;20042;-65
2023/05/25 05:45:39;;;;;;;14.90;5.00;;;21.10;82.70;;;;;;4971544;28;20051;-66
2023/05/25 05:48:08;;;;;;;13.00;4.88;;;21.00;80.80;;;;;;4991469;28;20027;-64
2023/05/25 05:50:35;;;;;;;17.60;4.68;;;22.10;78.40;;;;;;4989803;28;20431;-66
2023/05/25 05:53:00;;;;;;;14.02;5.03;;;22.00;79.80;;;;;;4989529;28;20030;-65
2023/05/25 05:55:26;;;;;;;13.70;4.63;;;21.70;77.90;;;;;;4986323;28;20042;-64
2023/05/25 05:57:51;;;;;;;10.45;4.05;;;21.60;78.90;;;;;;4991236;28;20025;-64
2023/05/25 06:00:18;;;;;;;6.75;3.75;;;22.60;76.00;;;;;;4987967;28;20108;-65
2023/05/25 06:02:43;;;;;;;9.57;4.35;;;22.60;76.40;;;;;;4989296;28;20487;-63
2023/05/25 06:05:09;;;;;;;9.73;4.20;;;22.30;75.80;;;;;;4987676;28;20026;-63
2023/05/25 06:07:35;;;;;;;8.13;3.97;;;22.80;76.40;;;;;;4990532;28;20688;-64
2023/05/25 06:10:00;;;;;;;14.57;4.63;;;23.10;75.60;;;;;;4986216;28;20438;-64
2023/05/25 06:12:26;;;;;;;13.07;4.38;;;23.00;73.30;;;;;;4988875;28;20026;-64
2023/05/25 06:14:52;;;;;;;12.48;4.68;;;22.60;74.40;;;;;;4991491;28;20128;-64
2023/05/25 06:17:18;;;;;;;10.30;3.80;;;22.30;75.80;;;;;;4991268;28;20041;-63
2023/05/25 06:19:44;;;;;;;10.05;4.10;;;24.40;72.60;;;;;;4987966;28;20594;-65
2023/05/25 06:22:09;;;;;;;10.48;4.32;;;22.80;74.10;;;;;;4989026;28;20129;-65
2023/05/25 06:24:35;;;;;;;12.07;4.22;;;23.20;76.20;;;;;;4990592;28;20022;-64
2023/05/25 06:27:02;;;;;;;11.05;4.45;;;24.80;71.50;;;;;;4973704;28;20038;-63
2023/05/25 06:29:27;;;;;;;12.63;4.63;;;23.80;70.00;;;;;;4989500;28;20141;-65
2023/05/25 06:31:53;;;;;;;12.00;4.07;;;23.00;72.00;;;;;;4990624;28;20555;-64
2023/05/25 06:34:19;;;;;;;12.45;4.78;;;22.90;74.30;;;;;;4990064;28;20101;-64
2023/05/25 06:36:45;;;;;;;11.88;4.13;;;24.00;71.90;;;;;;4989531;28;20035;-64
2023/05/25 06:39:11;;;;;;;9.77;4.35;;;24.40;72.30;;;;;;4987587;28;20134;-65
2023/05/25 06:41:39;;;;;;;13.73;4.43;;;25.20;70.60;;;;;;4989461;28;20762;-65
2023/05/25 06:44:05;;;;;;;13.45;4.70;;;24.70;70.50;;;;;;4990195;28;20033;-65
2023/05/25 06:46:31;;;;;;;11.10;4.18;;;25.70;68.80;;;;;;4970824;28;20047;-65
2023/05/25 06:48:58;;;;;;;11.88;4.32;;;26.80;67.50;;;;;;4991351;28;20021;-65
2023/05/25 06:51:26;;;;;;;13.57;4.45;;;26.60;66.90;;;;;;4985599;28;20439;-65
2023/05/25 06:53:52;;;;;;;11.00;4.68;;;25.70;67.00;;;;;;4991592;28;20033;-64
2023/05/25 06:56:17;;;;;;;11.80;4.60;;;26.80;64.70;;;;;;4988021;28;20042;-64
2023/05/25 06:58:43;;;;;;;11.55;4.65;;;26.00;66.30;;;;;;4991298;28;20134;-65
2023/05/25 07:01:08;;;;;;;10.75;4.20;;;25.70;67.20;;;;;;4987852;28;20510;-64
2023/05/25 07:03:35;;;;;;;12.60;5.00;;;26.10;65.40;;;;;;4990263;28;20018;-64
2023/05/25 07:06:01;;;;;;;11.73;4.10;;;27.00;63.30;;;;;;4981463;28;20030;-63
2023/05/25 07:08:26;;;;;;;13.30;4.70;;;26.20;66.20;;;;;;4987682;28;20041;-65
2023/05/25 07:10:52;;;;;;;11.15;4.05;;;26.10;65.40;;;;;;4989091;28;20500;-64
2023/05/25 07:13:18;;;;;;;16.65;4.72;;;26.50;66.30;;;;;;4989648;28;20037;-64
2023/05/25 07:15:43;;;;;;;14.80;4.75;;;26.60;63.80;;;;;;4988013;28;20026;-65
2023/05/25 07:18:11;;;;;;;11.43;4.60;;;26.20;63.40;;;;;;4989542;28;20026;-65
2023/05/25 07:20:40;;;;;;;13.68;5.18;;;25.70;65.20;;;;;;4987512;28;20030;-64
2023/05/25 07:23:07;;;;;;;12.68;4.68;;;25.50;64.70;;;;;;4987580;28;20030;-65
2023/05/25 07:25:33;;;;;;;12.13;4.40;;;25.90;63.80;;;;;;4987526;28;20041;-65
2023/05/25 07:27:59;;;;;;;13.25;5.18;;;26.50;64.50;;;;;;4990399;28;20026;-64
2023/05/25 07:30:24;;;;;;;12.57;4.47;;;27.50;61.30;;;;;;4985808;28;20058;-65
2023/05/25 07:32:50;;;;;;;12.43;4.47;;;27.90;60.40;;;;;;4989742;28;20030;-65
2023/05/25 07:35:16;;;;;;;11.30;3.95;;;27.10;62.60;;;;;;4983772;28;20102;-64
2023/05/25 07:37:41;;;;;;;10.40;4.10;;;26.80;63.40;;;;;;4991567;28;20105;-65
2023/05/25 07:40:08;;;;;;;11.83;4.60;;;28.50;61.90;;;;;;4988917;28;20030;-65
2023/05/25 07:42:34;;;;;;;9.35;4.40;;;28.40;60.20;;;;;;4991317;28;20596;-65
2023/05/25 07:45:01;;;;;;;11.15;4.00;;;27.80;59.60;;;;;;4986170;28;20034;-65
2023/05/25 07:47:27;;;;;;;14.80;4.32;;;28.20;60.20;;;;;;4969936;28;20037;-64
2023/05/25 07:49:53;;;;;;;9.65;4.70;;;28.10;60.30;;;;;;4988836;28;20568;-63
2023/05/25 07:52:19;;;;;;;10.75;4.20;;;28.10;59.00;;;;;;4989283;28;20038;-64
2023/05/25 07:54:45;;;;;;;8.68;3.95;;;28.50;58.30;;;;;;4984981;28;20030;-65
2023/05/25 07:57:11;;;;;;;8.85;3.80;;;28.80;58.70;;;;;;4989015;28;20566;-64
2023/05/25 07:59:36;;;;;;;9.18;4.22;;;29.40;60.30;;;;;;4989342;28;20018;-65
2023/05/25 08:02:02;;;;;;;11.25;5.18;;;29.40;60.00;;;;;;4989398;28;20057;-65
2023/05/25 08:04:29;;;;;;;10.55;4.75;;;29.20;60.10;;;;;;4972517;28;20019;-65
2023/05/25 08:06:56;;;;;;;9.82;4.32;;;28.50;60.00;;;;;;4988474;28;20038;-65
2023/05/25 08:09:21;;;;;;;9.52;4.22;;;28.70;57.20;;;;;;4987658;28;20049;-65
2023/05/25 08:11:47;;;;;;;16.35;4.32;;;30.00;56.70;;;;;;4989560;28;20023;-65
2023/05/25 08:14:13;;;;;;;10.98;4.35;;;27.40;57.60;;;;;;4989328;28;20027;-65
2023/05/25 08:16:38;;;;;;;15.43;4.00;;;26.00;60.10;;;;;;4989535;28;20029;-65
2023/05/25 08:19:04;;;;;;;9.57;4.05;;;26.30;62.50;;;;;;4989326;28;20030;-65
2023/05/25 08:21:33;;;;;;;12.45;4.75;;;26.40;62.00;;;;;;4988148;28;20033;-65
2023/05/25 08:24:02;;;;;;;9.80;3.97;;;27.00;61.00;;;;;;4987075;28;20029;-65
2023/05/25 08:26:28;;;;;;;12.95;4.78;;;26.70;62.60;;;;;;4986138;28;20051;-63
2023/05/25 08:28:55;;;;;;;11.25;3.97;;;27.10;59.80;;;;;;4993454;28;20026;-64
2023/05/25 08:31:20;;;;;;;12.15;4.18;;;25.30;62.20;;;;;;4993583;28;20034;-64
2023/05/25 08:33:46;;;;;;;17.50;4.07;;;23.90;65.40;;;;;;4993578;28;20057;-64
2023/05/25 08:36:12;;;;;;;14.15;4.07;;;22.80;65.80;;;;;;4991155;28;20038;-64
2023/05/25 08:38:37;;;;;;;8.95;3.10;;;22.00;69.70;;;;;;4991711;28;20036;-64
2023/05/25 08:41:05;;;;;;;9.50;3.47;;;21.40;67.60;;;;;;4992742;28;20045;-64
2023/05/25 08:43:32;;;;;;;9.00;3.28;;;22.10;69.00;;;;;;4992864;28;20599;-64
2023/05/25 08:46:03;;;;;;;7.30;3.65;;;23.40;66.70;;;;;;4988518;28;20030;-64
2023/05/25 08:48:31;;;;;;;5.97;2.47;;;24.10;64.50;;;;;;4980388;28;20217;-64
2023/05/25 08:51:05;;;;;;;9.45;2.72;;;24.00;61.70;;;;;;4992133;28;20027;-62
2023/05/25 08:53:35;;;;;;;6.43;2.60;;;24.50;61.70;;;;;;4989432;28;20854;-64
2023/05/25 08:56:08;;;;;;;6.80;2.72;;;25.20;59.40;;;;;;4989375;28;20076;-63
2023/05/25 08:58:42;;;;;;;8.65;3.00;;;24.80;59.60;;;;;;4990439;28;20037;-64
2023/05/25 09:01:10;;;;;;;6.65;2.90;;;25.10;59.80;;;;;;4992232;28;20057;-64
2023/05/25 09:03:38;;;;;;;8.23;2.75;;;25.30;61.50;;;;;;4992567;28;20041;-64
2023/05/25 09:06:03;;;;;;;7.03;2.25;;;26.10;60.90;;;;;;4986783;28;20022;-66
2023/05/25 09:08:29;;;;;;;9.85;3.65;;;26.40;58.60;;;;;;4984083;28;20033;-65
2023/05/25 09:10:56;;;;;;;7.10;3.05;;;27.10;57.60;;;;;;4990770;28;20030;-65
2023/05/25 09:13:22;;;;;;;9.65;3.55;;;27.60;58.60;;;;;;4988191;28;20049;-65
2023/05/25 09:15:48;;;;;;;8.20;3.47;;;27.70;58.80;;;;;;4991716;28;20488;-65
2023/05/25 09:18:14;;;;;;;7.15;2.67;;;27.50;57.90;;;;;;4989307;28;20038;-64
2023/05/25 09:20:40;;;;;;;12.43;4.75;;;25.00;60.70;;;;;;4974597;28;20023;-65
2023/05/25 09:23:07;;;;;;;10.38;3.15;;;24.30;62.10;;;;;;4992160;28;20031;-65
2023/05/25 09:25:34;;;;;;;10.57;3.72;;;23.60;63.60;;;;;;4988919;28;20050;-65
2023/05/25 09:28:00;;;;;;;9.85;3.95;;;22.80;63.90;;;;;;4990793;28;20045;-65
2023/05/25 09:30:31;;;;;;;10.73;4.90;;;22.80;63.50;;;;;;4991604;28;20372;-65
2023/05/25 09:33:09;;;;;;;8.77;3.00;;;22.50;66.30;;;;;;4991494;28;20019;-64
2023/05/25 09:35:34;;;;;;;7.03;2.10;;;23.20;66.00;;;;;;4989969;28;20034;-65
2023/05/25 09:38:00;;;;;;;8.57;2.22;;;23.50;63.40;;;;;;4990591;28;20030;-65
2023/05/25 09:40:25;;;;;;;7.82;3.00;;;25.00;64.20;;;;;;4991820;28;20464;-66
2023/05/25 09:42:51;;;;;;;12.52;4.05;;;25.80;61.70;;;;;;4975951;28;20508;-65
2023/05/25 09:45:17;;;;;;;8.32;3.03;;;26.60;59.70;;;;;;4987824;28;20093;-64
2023/05/25 09:47:42;;;;;;;12.25;3.50;;;26.30;60.40;;;;;;4972991;28;20073;-65
2023/05/25 09:50:10;;;;;;;6.65;2.63;;;26.20;60.60;;;;;;4990981;28;20456;-65
2023/05/25 09:52:35;;;;;;;7.50;2.47;;;25.90;60.70;;;;;;4987049;28;20030;-65
2023/05/25 09:55:02;;;;;;;5.80;2.85;;;27.00;57.70;;;;;;4989960;28;20031;-65
2023/05/25 09:57:28;;;;;;;7.20;3.28;;;25.60;60.70;;;;;;4992361;28;20026;-65
2023/05/25 09:59:53;;;;;;;6.72;3.17;;;24.80;61.10;;;;;;4991570;28;20046;-65
2023/05/25 10:02:19;;;;;;;8.65;3.00;;;24.10;62.30;;;;;;4987992;28;21744;-64
2023/05/25 10:04:45;;;;;;;8.18;3.70;;;23.70;64.00;;;;;;4989037;28;20435;-64
2023/05/25 10:07:12;;;;;;;11.05;3.13;;;23.90;63.50;;;;;;4986314;28;20392;-64
2023/05/25 10:09:40;;;;;;;12.00;3.30;;;23.60;62.90;;;;;;4972167;28;20033;-64
2023/05/25 10:12:06;;;;;;;8.27;2.83;;;22.90;64.50;;;;;;4989596;28;20027;-64
2023/05/25 10:14:35;;;;;;;8.27;3.25;;;22.20;66.70;;;;;;4989646;28;20038;-64
2023/05/25 10:17:05;;;;;;;6.13;3.20;;;22.10;65.80;;;;;;4991621;28;20087;-61
2023/05/25 10:19:35;;;;;;;11.63;3.88;;;22.40;68.10;;;;;;4988477;28;20534;-63
2023/05/25 10:22:22;;;;;;;10.65;3.88;;;22.70;65.80;;;;;;4989940;28;20504;-65
2023/05/25 10:24:51;;;;;;;10.65;3.85;;;22.20;66.20;;;;;;4978516;28;20028;-64
2023/05/25 10:27:23;;;;;;;10.20;3.85;;;21.50;69.00;;;;;;4991484;28;20377;-65
2023/05/25 10:29:50;;;;;;;5.60;3.33;;;21.10;69.40;;;;;;4988059;28;20530;-65
2023/05/25 10:32:17;;;;;;;10.48;3.50;;;20.70;71.10;;;;;;4988979;28;20030;-64
2023/05/25 10:34:44;;;;;;;8.98;3.50;;;20.20;70.50;;;;;;4989218;28;20515;-65
2023/05/25 10:37:11;;;;;;;8.60;3.17;;;20.30;71.00;;;;;;4989069;28;20404;-65
2023/05/25 10:39:40;;;;;;;13.68;3.58;;;20.60;70.50;;;;;;4985861;28;20049;-64
2023/05/25 10:42:06;;;;;;;14.50;4.10;;;20.80;70.30;;;;;;4978090;28;20439;-64
2023/05/25 10:44:32;;;;;;;10.05;3.42;;;20.60;68.90;;;;;;4987879;28;20072;-64
2023/05/25 10:47:02;;;;;;;9.77;3.88;;;20.30;70.90;;;;;;4985602;28;20022;-65
2023/05/25 10:49:34;;;;;;;9.40;4.45;;;20.50;71.20;;;;;;4965102;28;20081;-63
2023/05/25 10:52:04;;;;;;;8.43;3.07;;;20.90;68.10;;;;;;4988432;28;20030;-64
2023/05/25 10:54:34;;;;;;;8.75;3.88;;;21.10;70.20;;;;;;4990081;28;20305;-63
2023/05/25 10:57:18;;;;;;;11.30;4.38;;;21.30;70.30;;;;;;4982700;28;20037;-62
2023/05/25 10:59:54;;;;;;;8.30;3.75;;;21.30;69.30;;;;;;4990144;28;20437;-65
2023/05/25 11:02:23;;;;;;;12.85;3.90;;;21.40;69.50;;;;;;4990558;28;20030;-65
2023/05/25 11:04:49;;;;;;;13.23;6.20;;;20.90;70.40;;;;;;4987210;28;20023;-65
2023/05/25 11:07:18;;;;;;;11.50;4.72;;;20.30;71.30;;;;;;4985843;28;20057;-64
2023/05/25 11:09:56;;;;;;;9.43;4.32;;;20.10;73.50;;;;;;4987347;28;20022;-63
2023/05/25 11:12:22;;;;;;;9.30;4.35;;;20.00;73.80;;;;;;4984871;28;20105;-64
2023/05/25 11:15:09;;;;;;;11.45;5.18;;;20.30;74.40;;;;;;4986321;28;20034;-63
2023/05/25 11:18:09;;;;;;;11.95;4.25;;;20.10;72.80;;;;;;4987483;28;20022;-64
2023/05/25 11:20:36;;;;;;;10.05;5.05;;;20.10;74.00;;;;;;4982637;28;20065;-64
2023/05/25 11:23:22;;;;;;;13.63;5.82;;;20.20;74.80;;;;;;4986435;28;20056;-63
2023/05/25 11:25:47;;;;;;;13.70;5.15;;;20.40;73.80;;;;;;4979889;28;20400;-63
2023/05/25 11:28:14;;;;;;;14.85;5.38;;;20.30;74.30;;;;;;4986079;28;20555;-64
2023/05/25 11:30:43;;;;;;;10.88;5.72;;;20.20;74.60;;;;;;4980617;28;20053;-64
2023/05/25 11:33:08;;;;;;;11.48;5.75;;;20.40;75.00;;;;;;4985019;28;20096;-64
2023/05/25 11:35:35;;;;;;;13.52;5.30;;;20.20;73.40;;;;;;4965737;28;20447;-65
2023/05/25 11:38:05;;;;;;;11.45;5.57;;;20.00;75.40;;;;;;4985154;28;20093;-63
2023/05/25 11:40:31;;;;;;;10.57;5.10;;;19.90;75.50;;;;;;4967658;28;20033;-64
2023/05/25 11:42:59;;;;;;;13.27;5.78;;;19.80;76.10;;;;;;4987122;28;20026;-65
2023/05/25 11:45:28;;;;;;;9.95;5.07;;;19.90;76.00;;;;;;4984818;28;20065;-64
2023/05/25 11:47:53;;;;;;;12.23;6.13;;;19.90;76.50;;;;;;4970985;28;20050;-64
2023/05/25 11:50:20;;;;;;;14.68;5.68;;;19.80;76.30;;;;;;4985082;28;20053;-65
2023/05/25 11:52:45;;;;;;;14.73;6.05;;;19.50;78.20;;;;;;4991050;28;20069;-65
2023/05/25 11:55:13;;;;;;;9.60;4.65;;;19.60;77.40;;;;;;4988952;28;20030;-63
2023/05/25 11:57:39;;;;;;;9.77;4.85;;;19.50;79.10;;;;;;4988642;28;20022;-63
2023/05/25 12:00:06;;;;;;;14.48;6.60;;;19.50;79.80;;;;;;4987770;28;20045;-63
2023/05/25 12:02:40;;;;;;;17.38;5.38;;;19.00;78.90;;;;;;4989127;28;20030;-65
2023/05/25 12:05:07;;;;;;;13.50;5.93;;;18.80;80.90;;;;;;4982916;28;20027;-65
2023/05/25 12:07:33;;;;;;;13.38;5.10;;;18.70;81.20;;;;;;4986176;28;20045;-64
2023/05/25 12:10:08;;;;;;;12.27;5.50;;;18.60;82.20;;;;;;4988615;28;20050;-65
2023/05/25 12:12:45;;;;;;;11.50;5.00;;;18.70;81.30;;;;;;4983577;28;20027;-64
2023/05/25 12:15:12;;;;;;;9.95;5.13;;;18.30;82.90;;;;;;4985816;28;20033;-65
2023/05/25 12:17:43;;;;;;;15.68;5.60;;;18.40;82.00;;;;;;4967931;28;20027;-65
2023/05/25 12:20:10;;;;;;;9.70;4.63;;;18.40;83.30;;;;;;4988978;28;20030;-64
2023/05/25 12:22:40;;;;;;;13.80;5.28;;;18.30;82.20;;;;;;4988094;28;20114;-64
2023/05/25 12:25:07;;;;;;;11.73;5.53;;;18.20;83.30;;;;;;4974368;28;20034;-64
2023/05/25 12:27:33;;;;;;;9.70;5.05;;;18.20;83.30;;;;;;4985018;28;20027;-64
2023/05/25 12:29:59;;;;;;;13.38;4.55;;;18.00;83.00;;;;;;4989279;28;20030;-65
2023/05/25 12:32:25;;;;;;;8.05;4.75;;;17.80;85.00;;;;;;4983314;28;20039;-64
2023/05/25 12:34:50;;;;;;;12.98;4.30;;;17.90;85.30;;;;;;4979722;28;20045;-64
2023/05/25 12:37:20;;;;;;;20.25;5.82;;;17.90;85.90;;;;;;4980614;28;20026;-64
2023/05/25 12:39:46;;;;;;;10.90;4.82;;;17.90;84.80;;;;;;4983433;28;20065;-63
2023/05/25 12:42:16;;;;;;;9.85;4.72;;;17.70;85.30;;;;;;4984373;28;20044;-64
2023/05/25 12:44:45;;;;;;;10.02;4.97;;;17.60;85.40;;;;;;4980266;28;20444;-64